Latest Weather Observations for Armidale Airport

IDN60801

Issued at 6:03 pm EST Sunday 24 September 2017 (issued every 30 minutes, with the page automatically refreshed every 10 minutes)

About weather observations | Map of weather stations | Latest weather observations for NSW | Other Formats
Station Details ID: 056238 Name: ARMIDALE AIRPORT AWS Lat: -30.53 Lon: 151.62 Height: 1079.0 m
Data from the previous 72 hours. | See also: Recent months at Armidale Airport
Date/Time
EST
Temp
°C
App
Temp
°C
Dew
Point
°C
Rel
Hum
%
Delta-T
°C
Wind Press
QNH
hPa
Press
MSL
hPa
Rain since
9am
mm
Dir  Spd
km/h
Gust
km/h
Spd
kts
Gust
kts
24/06:00pm 23.0 17.8 3.5 28 10.0 NW 20 28 11 15 1011.8 1009.7 0.0
24/05:30pm 23.6 17.6 3.5 27 10.3 NW 24 33 13 18 1011.7 1009.6 0.0
24/05:00pm 23.7 18.6 4.1 28 10.2 NW 20 28 11 15 1011.4 1009.2 0.0
24/04:30pm 23.8 18.7 4.2 28 10.2 NNW 20 30 11 16 1011.0 1008.9 0.0
24/04:00pm 24.3 18.4 4.1 27 10.5 NW 24 33 13 18 1011.3 1009.1 0.0
24/03:30pm 24.1 16.7 4.0 27 10.4 NW 32 46 17 25 1011.6 1009.5 0.0
24/03:00pm 25.2 17.8 4.9 27 10.8 NNW 33 41 18 22 1011.5 1009.4 0.0
24/02:30pm 24.8 17.6 5.1 28 10.5 NW 32 41 17 22 1012.1 1010.0 0.0
24/02:00pm 25.2 18.2 4.3 26 11.0 NW 30 39 16 21 1012.4 1010.3 0.0
24/01:30pm 24.7 17.2 3.4 25 11.0 NW 32 50 17 27 1012.8 1010.7 0.0
24/01:00pm 24.8 16.1 4.0 26 10.9 WNW 39 59 21 32 1013.4 1011.3 0.0
24/12:59pm 24.9 15.7 3.5 25 11.1 WNW 41 59 22 32 1013.4 1011.3 0.0
24/12:30pm 25.8 15.6 3.1 23 11.7 WNW 46 61 25 33 1013.3 1011.2 0.0
24/12:06pm 25.2 15.9 3.2 24 11.3 NW 41 59 22 32 1013.5 1011.4 0.0
24/12:00pm 25.9 16.6 3.2 23 11.8 NW 41 56 22 30 1013.6 1011.5 0.0
24/11:47am 26.4 18.6 4.8 25 11.5 NW 35 54 19 29 1013.8 1011.7 0.0
24/11:30am 25.6 17.8 6.8 30 10.4 NW 37 50 20 27 1014.1 1012.1 0.0
24/11:06am 24.2 15.2 4.6 28 10.3 NW 41 59 22 32 1014.4 1012.3 0.0
24/11:00am 24.1 15.7 5.5 30 9.9 NW 39 52 21 28 1014.4 1012.3 0.0
24/10:30am 24.6 15.9 5.9 30 10.1 NW 41 50 22 27 1014.5 1012.4 0.0
24/10:02am 24.0 15.9 5.4 30 9.9 NW 37 56 20 30 1014.6 1012.5 0.0
24/10:00am 24.2 16.3 6.0 31 9.8 NW 37 52 20 28 1014.6 1012.5 0.0
24/09:38am 23.6 14.8 5.5 31 9.6 NW 41 59 22 32 1014.8 1012.8 0.0
24/09:30am 23.5 14.5 6.3 33 9.3 NW 43 56 23 30 1014.9 1012.9 0.0
24/09:15am 23.2 14.8 5.6 32 9.4 NW 39 59 21 32 1015.1 1013.1 0.0
24/09:00am 22.6 13.4 6.4 35 8.7 NW 44 57 24 31 1015.1 1013.1 0.0
24/08:49am 22.5 14.2 6.3 35 8.7 NW 39 57 21 31 1015.3 1013.2 0.0
24/08:30am 22.2 14.8 6.8 37 8.3 NW 35 46 19 25 1015.5 1013.4 0.0
24/08:00am 21.9 15.1 7.0 38 8.1 NW 32 44 17 24 1015.0 1013.0 0.0
24/07:30am 20.8 14.7 6.7 40 7.5 NNW 28 41 15 22 1014.7 1012.7 0.0
24/07:00am 20.1 14.5 7.1 43 7.0 NW 26 37 14 20 1014.6 1012.5 0.0
24/06:30am 19.3 12.9 6.8 44 6.6 NNW 30 43 16 23 1013.7 1011.6 0.0
24/06:00am 18.9 14.4 7.0 46 6.3 NW 20 33 11 18 1013.9 1011.9 0.0
24/05:30am 18.5 11.5 6.7 46 6.2 NW 33 44 18 24 1014.0 1012.0 0.0
24/05:00am 18.4 11.9 6.3 45 6.3 NNW 30 43 16 23 1013.7 1011.6 0.0
24/04:30am 17.9 12.9 6.4 47 6.0 WNW 22 32 12 17 1013.9 1011.9 0.0
24/04:00am 18.6 13.9 6.1 44 6.5 W 20 30 11 16 1013.9 1011.9 0.0
24/03:30am 20.1 12.4 5.4 38 7.6 NNW 35 59 19 32 1013.0 1010.9 0.0
24/03:14am 19.8 12.8 5.8 40 7.3 NNW 32 52 17 28 1013.0 1010.9 0.0
24/03:00am 19.7 12.0 5.4 39 7.4 NNW 35 52 19 28 1013.3 1011.2 0.0
24/02:30am 19.9 11.5 5.5 39 7.5 NNW 39 52 21 28 1013.3 1011.2 0.0
24/02:02am 19.9 11.4 5.2 38 7.6 NNW 39 57 21 31 1013.1 1011.1 0.0
24/02:00am 19.9 11.0 5.2 38 7.6 NNW 41 57 22 31 1013.1 1011.1 0.0
24/01:57am 19.8 10.9 5.1 38 7.6 NNW 41 59 22 32 1013.4 1011.3 0.0
24/01:30am 20.3 11.7 4.8 36 8.0 NNW 39 54 21 29 1013.4 1011.3 0.0
24/01:00am 20.4 11.3 4.0 34 8.3 NNW 41 56 22 30 1013.5 1011.4 0.0
24/12:30am 20.8 12.7 3.1 31 8.9 NNW 35 54 19 29 1013.5 1011.4 0.0
24/12:29am 20.6 12.4 2.9 31 8.8 NNW 35 54 19 29 1013.6 1011.5 0.0
24/12:00am 20.9 12.5 1.7 28 9.4 NNW 35 46 19 25 1014.1 1012.1 0.0
 
Date/Time
EST
Temp
°C
App
Temp
°C
Dew
Point
°C
Rel
Hum
%
Delta-T
°C
Wind Press
QNH
hPa
Press
MSL
hPa
Rain since
9am
mm
Dir  Spd
km/h
Gust
km/h
Spd
kts
Gust
kts
23/11:30pm 20.5 12.7 1.4 28 9.2 NNW 32 39 17 21 1014.3 1012.2 0.0
23/11:00pm 20.5 13.0 0.9 27 9.4 NNW 30 43 16 23 1014.6 1012.5 0.0
23/10:30pm 20.9 13.6 0.2 25 9.8 NNW 28 35 15 19 1014.7 1012.7 0.0
23/10:00pm 20.8 13.5 0.1 25 9.8 NNW 28 39 15 21 1014.9 1012.9 0.0
23/09:30pm 21.3 14.5 0.5 25 9.9 NNW 26 35 14 19 1014.7 1012.7 0.0
23/09:00pm 21.0 15.0 0.8 26 9.7 NNW 22 30 12 16 1014.8 1012.8 0.0
23/08:30pm 20.5 14.9 0.9 27 9.4 NNW 20 32 11 17 1014.9 1012.9 0.0
23/08:00pm 19.9 14.4 0.9 28 9.1 NNW 19 24 10 13 1015.0 1013.0 0.0
23/07:30pm 19.4 14.3 0.9 29 8.8 N 17 20 9 11 1015.0 1013.0 0.0
23/07:00pm 19.8 14.8 1.3 29 8.9 N 17 20 9 11 1014.9 1012.9 0.0
23/06:30pm 20.4 15.4 1.3 28 9.2 N 17 20 9 11 1014.9 1012.9 0.0
23/06:00pm 20.2 15.5 1.1 28 9.2 NNW 15 17 8 9 1014.8 1012.8 0.0
23/05:30pm 22.2 17.2 1.3 25 10.2 NNW 17 22 9 12 1014.7 1012.7 0.0
23/05:00pm 24.1 18.6 1.7 23 11.2 NNW 20 30 11 16 1014.5 1012.4 0.0
23/04:30pm 25.1 18.1 1.9 22 11.7 NNW 28 41 15 22 1014.4 1012.3 0.0
23/04:00pm 25.9 18.7 3.2 23 11.8 NW 30 41 16 22 1014.3 1012.2 0.0
23/03:30pm 26.2 19.5 1.5 20 12.4 NNW 26 39 14 21 1014.4 1012.3 0.0
23/03:00pm 26.5 19.5 1.7 20 12.6 NNW 28 37 15 20 1014.5 1012.4 0.0
23/02:30pm 26.9 19.6 2.7 21 12.5 NW 30 41 16 22 1014.7 1012.7 0.0
23/02:00pm 27.3 20.3 1.7 19 13.0 NW 28 39 15 21 1014.9 1012.9 0.0
23/01:30pm 27.3 21.5 2.4 20 12.8 NNW 22 35 12 19 1015.3 1013.2 0.0
23/01:00pm 27.0 20.8 2.1 20 12.7 NW 24 37 13 20 1015.7 1013.7 0.0
23/12:30pm 26.0 19.9 2.7 22 12.0 NNW 24 33 13 18 1016.0 1014.0 0.0
23/12:00pm 25.9 19.3 1.9 21 12.1 NW 26 35 14 19 1016.7 1014.7 0.0
23/11:30am 25.6 19.4 4.1 25 11.3 NW 26 33 14 18 1017.1 1015.1 0.0
23/11:00am 24.6 18.2 5.4 29 10.2 NW 28 35 15 19 1017.6 1015.6 0.0
23/10:30am 23.2 16.4 5.2 31 9.5 NW 30 37 16 20 1018.0 1016.1 0.0
23/10:00am 23.0 17.2 7.9 38 8.3 NW 28 35 15 19 1018.5 1016.5 0.0
23/09:30am 21.7 16.8 8.6 43 7.3 NW 24 35 13 19 1018.8 1016.9 0.0
23/09:00am 20.7 16.7 9.0 47 6.5 NNW 20 28 11 15 1019.0 1017.1 0.0
23/08:30am 19.4 14.9 8.7 50 5.9 NNW 22 28 12 15 1018.9 1017.0 0.0
23/08:00am 18.6 14.8 9.1 54 5.2 NNW 19 26 10 14 1018.8 1016.9 0.0
23/07:30am 17.0 13.5 10.1 64 3.9 NW 19 26 10 14 1018.8 1016.9 0.0
23/07:00am 14.8 12.3 11.0 78 2.1 NW 15 20 8 11 1018.6 1016.6 0.0
23/06:30am 12.1 9.4 8.8 80 1.7 WNW 13 15 7 8 1018.4 1016.4 0.0
23/06:00am 10.9 8.1 7.0 77 2.0 NW 11 15 6 8 1018.0 1016.1 0.0
23/05:30am 11.7 8.1 6.6 71 2.6 WNW 15 19 8 10 1018.1 1016.2 0.0
23/05:00am 12.7 8.9 5.6 62 3.5 NW 15 19 8 10 1017.9 1015.9 0.0
23/04:30am 11.7 7.9 3.7 58 3.8 WNW 13 17 7 9 1017.8 1015.8 0.0
23/04:00am 13.8 9.2 3.9 51 4.8 NNW 17 20 9 11 1017.6 1015.6 0.0
23/03:30am 13.0 9.1 1.4 45 5.3 NW 11 13 6 7 1017.5 1015.5 0.0
23/03:00am 12.8 10.1 2.9 51 4.6 NW 6 7 3 4 1017.5 1015.5 0.0
23/02:30am 12.6 10.0 3.3 53 4.4 NNW 6 7 3 4 1017.6 1015.6 0.0
23/02:00am 12.4 9.6 3.4 54 4.3 NNW 7 9 4 5 1017.8 1015.8 0.0
23/01:30am 12.8 10.3 3.5 53 4.4 NNW 6 7 3 4 1018.1 1016.2 0.0
23/01:00am 12.7 10.1 3.1 52 4.5 NW 6 7 3 4 1018.5 1016.5 0.0
23/12:30am 12.6 9.9 3.6 54 4.3 NW 7 9 4 5 1018.7 1016.7 0.0
23/12:00am 12.9 9.7 3.3 52 4.5 NW 9 11 5 6 1018.9 1017.0 0.0
 
Date/Time
EST
Temp
°C
App
Temp
°C
Dew
Point
°C
Rel
Hum
%
Delta-T
°C
Wind Press
QNH
hPa
Press
MSL
hPa
Rain since
9am
mm
Dir  Spd
km/h
Gust
km/h
Spd
kts
Gust
kts
22/11:30pm 13.4 10.3 3.8 52 4.6 WNW 9 11 5 6 1019.0 1017.1 0.0
22/11:00pm 13.1 10.0 3.5 52 4.6 NW 9 11 5 6 1018.9 1017.0 0.0
22/10:30pm 13.8 10.7 3.6 50 4.9 WNW 9 11 5 6 1019.1 1017.2 0.0
22/10:00pm 13.6 10.1 3.4 50 4.9 NW 11 13 6 7 1019.1 1017.2 0.0
22/09:30pm 13.0 10.0 2.0 47 5.1 WNW 7 9 4 5 1019.0 1017.1 0.0
22/09:00pm 14.9 11.6 2.4 43 5.9 WNW 9 11 5 6 1018.8 1016.9 0.0
22/08:30pm 15.0 11.7 2.5 43 5.9 NW 9 11 5 6 1018.7 1016.7 0.0
22/08:00pm 15.7 12.5 3.2 43 6.0 NW 9 11 5 6 1018.6 1016.6 0.0
22/07:30pm 15.2 12.4 3.0 44 5.9 NNW 7 9 4 5 1018.3 1016.3 0.0
22/07:00pm 15.2 11.9 2.7 43 6.0 NNW 9 13 5 7 1018.0 1016.1 0.0
22/06:30pm 15.2 11.9 2.4 42 6.1 NW 9 11 5 6 1017.8 1015.8 0.0
22/06:00pm 16.0 12.3 2.1 39 6.6 NW 11 13 6 7 1017.6 1015.6 0.0
22/05:30pm 18.7 14.8 3.3 36 7.6 WNW 13 15 7 8 1017.6 1015.6 0.0
22/05:00pm 21.0 16.9 4.6 34 8.4 WNW 15 22 8 12 1017.3 1015.3 0.0
22/04:30pm 21.8 15.7 3.0 29 9.5 WNW 24 32 13 17 1017.1 1015.1 0.0
22/04:00pm 22.3 16.6 4.8 32 9.1 WNW 24 32 13 17 1017.0 1015.0 0.0
22/03:30pm 23.0 16.8 4.5 30 9.6 NW 26 35 14 19 1016.9 1014.9 0.0
22/03:00pm 22.6 16.1 4.6 31 9.4 NW 28 43 15 23 1016.9 1014.9 0.0
22/02:30pm 22.8 15.5 4.3 30 9.6 WNW 32 39 17 21 1016.9 1014.9 0.0
22/02:00pm 22.9 16.3 6.2 34 9.0 WNW 30 39 16 21 1017.1 1015.1 0.0
22/01:30pm 22.8 16.4 7.0 36 8.6 NW 30 46 16 25 1017.3 1015.3 0.0
22/01:00pm 23.1 18.8 9.5 42 7.7 WNW 22 33 12 18 1017.4 1015.4 0.0
22/12:30pm 22.0 18.1 10.8 49 6.5 WNW 22 35 12 19 1017.6 1015.6 0.0
22/12:00pm 20.8 17.0 11.2 54 5.6 WNW 22 32 12 17 1018.0 1016.1 0.0
22/11:30am 21.0 17.7 11.6 55 5.5 WNW 20 35 11 19 1018.5 1016.5 0.0
22/11:00am 20.4 16.9 10.8 54 5.5 WNW 20 35 11 19 1018.8 1016.9 0.0
22/10:30am 20.6 17.4 11.8 57 5.2 W 20 28 11 15 1018.9 1017.0 0.0
22/10:00am 20.0 15.6 11.8 59 4.8 NNW 26 35 14 19 1019.3 1017.3 0.0
22/09:30am 18.7 14.6 11.3 62 4.3 NW 24 30 13 16 1019.6 1017.6 0.0
22/09:00am 18.2 13.0 11.5 65 3.9 NW 30 37 16 20 1019.7 1017.8 0.0
22/08:30am 17.8 14.4 11.1 65 3.8 NNW 20 28 11 15 1019.8 1017.9 0.0
22/08:00am 16.7 12.8 12.0 74 2.7 NW 24 32 13 17 1019.7 1017.8 0.0
22/07:30am 15.2 13.3 11.8 80 1.9 NW 13 17 7 9 1019.6 1017.6 0.0
22/07:00am 13.0 11.3 9.8 81 1.7 NW 9 13 5 7 1019.4 1017.4 0.0
22/06:30am 10.7 8.8 6.6 76 2.1 NW 6 7 3 4 1019.1 1017.2 0.0
22/06:00am 9.1 6.3 3.1 66 2.7 WNW 7 9 4 5 1018.8 1016.9 0.0
22/05:30am 9.4 6.1 0.3 53 3.9 W 7 9 4 5 1018.8 1016.9 0.0
22/05:00am 8.5 5.2 0.2 56 3.5 WNW 7 9 4 5 1018.7 1016.7 0.0
22/04:30am 4.8 1.0 -0.8 67 2.2 W 9 11 5 6 1018.5 1016.5 0.0
22/04:00am 8.0 5.0 0.5 59 3.2 NW 6 9 3 5 1018.3 1016.3 0.0
22/03:30am 8.2 5.0 3.3 71 2.2 N 9 9 5 5 1018.0 1016.1 0.0
22/03:00am 3.1 -1.1 -0.7 76 1.5 NE 11 13 6 7 1017.8 1015.8 0.0
22/02:30am 6.7 3.1 0.6 65 2.6 ENE 9 11 5 6 1018.0 1016.1 0.0
22/02:00am 7.6 4.1 1.0 63 2.8 E 9 11 5 6 1018.1 1016.2 0.0
22/01:30am 4.7 -0.1 0.1 72 1.9 NE 15 15 8 8 1018.7 1016.7 0.0
22/01:00am 5.6 0.7 -0.4 65 2.4 NE 15 15 8 8 1018.9 1017.0 0.0
22/12:30am 7.9 4.3 0.4 59 3.2 ENE 9 11 5 6 1019.0 1017.1 0.0
22/12:00am 7.2 3.7 1.5 67 2.5 ENE 9 11 5 6 1019.3 1017.3 0.0
 
Date/Time
EST
Temp
°C
App
Temp
°C
Dew
Point
°C
Rel
Hum
%
Delta-T
°C
Wind Press
QNH
hPa
Press
MSL
hPa
Rain since
9am
mm
Dir  Spd
km/h
Gust
km/h
Spd
kts
Gust
kts
21/11:30pm 5.0 0.9 -0.4 68 2.2 NE 11 13 6 7 1019.5 1017.5 0.0
21/11:00pm 7.7 3.7 0.4 60 3.1 NE 11 13 6 7 1019.5 1017.5 0.0
21/10:30pm 8.6 4.9 0.1 55 3.6 NE 9 11 5 6 1019.7 1017.8 0.0
21/10:00pm 10.7 7.5 1.0 51 4.3 NE 7 7 4 4 1019.8 1017.9 0.0
21/09:30pm 8.9 5.7 0.6 56 3.6 NE 7 9 4 5 1019.9 1018.0 0.0
21/09:00pm 11.9 8.6 0.1 44 5.2 NW 7 7 4 4 1019.9 1018.0 0.0
21/08:30pm 11.1 7.8 -0.1 46 4.9 NNW 7 7 4 4 1019.9 1018.0 0.0
21/08:00pm 11.6 8.2 -0.5 43 5.2 NNW 7 9 4 5 1019.8 1017.9 0.0
21/07:30pm 13.4 10.2 -0.3 39 6.0 W 6 7 3 4 1019.6 1017.6 0.0
21/07:00pm 13.9 10.7 -0.5 37 6.3 W 6 7 3 4 1019.3 1017.3 0.0
21/06:30pm 13.8 10.4 -0.6 37 6.3 W 7 9 4 5 1018.9 1017.0 0.0

Other Formats:

Comma delimited format used in spreadsheet applications
http://www.bom.gov.au/fwo/IDN60801/IDN60801.95773.axf

JavaScript Object Notation format (JSON) in row-major order
http://www.bom.gov.au/fwo/IDN60801/IDN60801.95773.json